Time;durP1;ratioP1;P1;durP2;ratioP2;P2;SDS_P1;SDS_P2;PMS_P1;PMS_P2;Temp;Humidity;BMP_temperature;BMP_pressure;BME280_temperature;BME280_humidity;BME280_pressure;Samples;Min_cycle;Max_cycle;Signal;HPM_P1;HPM_P2
2022/08/07 00:00:58;;;;;;;;;;;;;;;;;;2115351;28;19923;-44
2022/08/07 00:01:59;;;;;;;;;;;;;;;;;;2115044;28;19963;-44
2022/08/07 00:03:21;;;;;;;;;;;;;;;;;;2115387;28;19924;-45
2022/08/07 00:04:22;;;;;;;;;;;;;;;;;;2115378;28;20017;-44
2022/08/07 00:05:25;;;;;;;;;;;;;;;;;;2115136;28;20019;-44
2022/08/07 00:06:25;;;;;;;;;;;;;;;;;;2115334;28;20015;-44
2022/08/07 00:07:30;;;;;;;;;;;;;;;;;;2115131;28;20338;-44
2022/08/07 00:08:41;;;;;;;;;;;;;;;;;;2115114;28;20376;-45
2022/08/07 00:09:44;;;;;;;;;;;;;;;;;;2115324;28;19981;-43
2022/08/07 00:11:05;;;;;;;;;;;;;;;;;;2113793;28;19923;-43
2022/08/07 00:12:06;;;;;;;;;;;;;;;;;;2106862;28;20007;-43
2022/08/07 00:13:07;;;;;;;;;;;;;;;;;;2106748;28;20061;-43
2022/08/07 00:14:17;;;;;;;;;;;;;;;;;;2106704;28;19924;-44
2022/08/07 00:15:18;;;;;;;;;;;;;;;;;;2106649;28;20373;-44
2022/08/07 00:16:19;;;;;;;;;;;;;;;;;;2106715;28;20015;-46
2022/08/07 00:17:28;;;;;;;;;;;;;;;;;;2106635;28;20015;-44
2022/08/07 00:18:29;;;;;;;;;;;;;;;;;;2106708;28;20013;-43
2022/08/07 00:19:30;;;;;;;;;;;;;;;;;;2106645;28;19928;-43
2022/08/07 00:20:51;;;;;;;;;;;;;;;;;;2106680;28;19924;-44
2022/08/07 00:21:52;;;;;;;;;;;;;;;;;;2106559;28;20021;-43
2022/08/07 00:22:55;;;;;;;;;;;;;;;;;;2106840;28;19928;-44
2022/08/07 00:23:56;;;;;;;;;;;;;;;;;;2106685;28;19967;-45
2022/08/07 00:24:57;;;;;;;;;;;;;;;;;;2106656;28;19924;-44
2022/08/07 00:25:58;;;;;;;;;;;;;;;;;;2106673;28;19931;-43
2022/08/07 00:27:07;;;;;;;;;;;;;;;;;;2106623;28;19931;-44
2022/08/07 00:28:09;;;;;;;;;;;;;;;;;;2106741;28;19931;-44
2022/08/07 00:29:11;;;;;;;;;;;;;;;;;;2106797;28;19951;-45
2022/08/07 00:30:11;;;;;;;;;;;;;;;;;;2106631;28;19924;-44
2022/08/07 00:31:24;;;;;;;;;;;;;;;;;;2106730;28;19958;-45
2022/08/07 00:32:25;;;;;;;;;;;;;;;;;;2106707;28;20003;-44
2022/08/07 00:33:29;;;;;;;;;;;;;;;;;;2106550;28;19924;-43
2022/08/07 00:34:29;;;;;;;;;;;;;;;;;;2106647;28;20358;-44
2022/08/07 00:35:30;;;;;;;;;;;;;;;;;;2106753;28;19932;-44
2022/08/07 00:36:31;;;;;;;;;;;;;;;;;;2106684;28;19924;-45
2022/08/07 00:37:32;;;;;;;;;;;;;;;;;;2106528;28;19925;-46
2022/08/07 00:38:48;;;;;;;;;;;;;;;;;;2106490;28;19971;-44
2022/08/07 00:39:48;;;;;;;;;;;;;;;;;;2106702;28;20031;-43
2022/08/07 00:40:55;;;;;;;;;;;;;;;;;;2106690;28;20278;-44
2022/08/07 00:41:56;;;;;;;;;;;;;;;;;;2106460;28;20022;-44
2022/08/07 00:43:03;;;;;;;;;;;;;;;;;;2106871;28;19924;-44
2022/08/07 00:44:03;;;;;;;;;;;;;;;;;;2113201;28;19924;-45
2022/08/07 00:45:04;;;;;;;;;;;;;;;;;;2114862;28;19977;-43
2022/08/07 00:46:07;;;;;;;;;;;;;;;;;;2114799;28;20280;-44
2022/08/07 00:47:08;;;;;;;;;;;;;;;;;;2115047;28;19930;-44
2022/08/07 00:48:16;;;;;;;;;;;;;;;;;;2115000;28;19970;-46
2022/08/07 00:49:17;;;;;;;;;;;;;;;;;;2114872;28;19935;-43
2022/08/07 00:50:24;;;;;;;;;;;;;;;;;;2114932;28;20001;-43
2022/08/07 00:51:45;;;;;;;;;;;;;;;;;;2114821;28;19923;-42
2022/08/07 00:52:58;;;;;;;;;;;;;;;;;;2114991;28;19923;-45
2022/08/07 00:53:59;;;;;;;;;;;;;;;;;;2114890;28;19924;-42
2022/08/07 00:54:59;;;;;;;;;;;;;;;;;;2115212;28;20018;-43
2022/08/07 00:56:05;;;;;;;;;;;;;;;;;;2114985;28;19958;-43
2022/08/07 00:57:08;;;;;;;;;;;;;;;;;;2114947;28;19970;-43
2022/08/07 00:58:09;;;;;;;;;;;;;;;;;;2114801;28;20384;-43
2022/08/07 00:59:10;;;;;;;;;;;;;;;;;;2114795;28;19955;-44
2022/08/07 01:00:11;;;;;;;;;;;;;;;;;;2114406;28;19924;-44
2022/08/07 01:01:12;;;;;;;;;;;;;;;;;;2115036;28;19923;-44
2022/08/07 01:02:13;;;;;;;;;;;;;;;;;;2114852;28;19924;-44
2022/08/07 01:03:29;;;;;;;;;;;;;;;;;;2114820;28;19946;-44
2022/08/07 01:04:50;;;;;;;;;;;;;;;;;;2115057;28;20010;-45
2022/08/07 01:05:50;;;;;;;;;;;;;;;;;;2114879;28;19963;-44
2022/08/07 01:06:54;;;;;;;;;;;;;;;;;;2114782;28;19923;-44
2022/08/07 01:07:55;;;;;;;;;;;;;;;;;;2114927;28;19924;-44
2022/08/07 01:08:56;;;;;;;;;;;;;;;;;;2114769;28;20000;-44
2022/08/07 01:09:59;;;;;;;;;;;;;;;;;;2114758;28;19971;-45
2022/08/07 01:11:07;;;;;;;;;;;;;;;;;;2113211;28;20010;-44
2022/08/07 01:12:28;;;;;;;;;;;;;;;;;;2106401;28;19924;-44
2022/08/07 01:13:31;;;;;;;;;;;;;;;;;;2106344;28;19928;-45
2022/08/07 01:14:35;;;;;;;;;;;;;;;;;;2106328;28;19974;-44
2022/08/07 01:15:37;;;;;;;;;;;;;;;;;;2106349;28;19928;-43
2022/08/07 01:16:58;;;;;;;;;;;;;;;;;;2106357;28;19931;-44
2022/08/07 01:17:59;;;;;;;;;;;;;;;;;;2106277;28;20018;-44
2022/08/07 01:19:00;;;;;;;;;;;;;;;;;;2106335;28;19963;-44
2022/08/07 01:20:01;;;;;;;;;;;;;;;;;;2106373;28;20416;-44
2022/08/07 01:21:02;;;;;;;;;;;;;;;;;;2106286;28;19927;-44
2022/08/07 01:22:03;;;;;;;;;;;;;;;;;;2106371;28;19967;-45
2022/08/07 01:23:04;;;;;;;;;;;;;;;;;;2106279;28;20002;-44
2022/08/07 01:24:12;;;;;;;;;;;;;;;;;;2106332;28;19924;-45
2022/08/07 01:25:13;;;;;;;;;;;;;;;;;;2106237;28;19924;-44
2022/08/07 01:26:34;;;;;;;;;;;;;;;;;;2106223;28;19932;-44
2022/08/07 01:27:35;;;;;;;;;;;;;;;;;;2106226;28;19924;-44
2022/08/07 01:28:36;;;;;;;;;;;;;;;;;;2106361;28;19930;-44
2022/08/07 01:29:37;;;;;;;;;;;;;;;;;;2106184;28;19924;-45
2022/08/07 01:30:38;;;;;;;;;;;;;;;;;;2106388;28;20007;-43
2022/08/07 01:31:39;;;;;;;;;;;;;;;;;;2106242;28;20007;-43
2022/08/07 01:32:42;;;;;;;;;;;;;;;;;;2106286;28;19928;-45
2022/08/07 01:33:43;;;;;;;;;;;;;;;;;;2106258;28;20011;-45
2022/08/07 01:34:48;;;;;;;;;;;;;;;;;;2106358;28;19931;-44
2022/08/07 01:35:49;;;;;;;;;;;;;;;;;;2106138;28;20427;-44
2022/08/07 01:36:55;;;;;;;;;;;;;;;;;;2106089;28;19928;-45
2022/08/07 01:37:58;;;;;;;;;;;;;;;;;;2106211;28;19959;-45
2022/08/07 01:38:59;;;;;;;;;;;;;;;;;;2112496;28;19931;-47
2022/08/07 01:40:01;;;;;;;;;;;;;;;;;;2114553;28;19930;-44
2022/08/07 01:41:02;;;;;;;;;;;;;;;;;;2114564;28;19927;-43
2022/08/07 01:42:03;;;;;;;;;;;;;;;;;;2114831;28;20015;-45
2022/08/07 01:43:24;;;;;;;;;;;;;;;;;;2114543;28;19923;-44
2022/08/07 01:44:26;;;;;;;;;;;;;;;;;;2114776;28;19969;-44
2022/08/07 01:45:27;;;;;;;;;;;;;;;;;;2114765;28;19977;-44
2022/08/07 01:46:37;;;;;;;;;;;;;;;;;;2114583;28;20284;-45
2022/08/07 01:47:38;;;;;;;;;;;;;;;;;;2114498;28;19923;-44
2022/08/07 01:48:59;;;;;;;;;;;;;;;;;;2114624;28;19977;-44
2022/08/07 01:50:00;;;;;;;;;;;;;;;;;;2114457;28;19928;-43
2022/08/07 01:51:01;;;;;;;;;;;;;;;;;;2114951;28;19924;-45
2022/08/07 01:52:22;;;;;;;;;;;;;;;;;;2114543;28;19931;-43
2022/08/07 01:53:23;;;;;;;;;;;;;;;;;;2114691;28;19930;-44
2022/08/07 01:54:44;;;;;;;;;;;;;;;;;;2114572;28;19924;-44
2022/08/07 01:55:44;;;;;;;;;;;;;;;;;;2114505;28;19928;-43
2022/08/07 01:56:45;;;;;;;;;;;;;;;;;;2114497;28;20225;-44
2022/08/07 01:57:46;;;;;;;;;;;;;;;;;;2114510;28;19957;-44
2022/08/07 01:59:07;;;;;;;;;;;;;;;;;;2114695;28;19931;-44
2022/08/07 02:00:08;;;;;;;;;;;;;;;;;;2114526;28;20042;-43
2022/08/07 02:01:14;;;;;;;;;;;;;;;;;;2114458;28;20384;-44
2022/08/07 02:02:34;;;;;;;;;;;;;;;;;;2114424;28;20043;-45
2022/08/07 02:03:55;;;;;;;;;;;;;;;;;;2114680;28;19950;-45
2022/08/07 02:04:56;;;;;;;;;;;;;;;;;;2114587;28;19924;-44
2022/08/07 02:05:58;;;;;;;;;;;;;;;;;;2114532;28;20552;-44
2022/08/07 02:07:01;;;;;;;;;;;;;;;;;;2114490;28;19969;-45
2022/08/07 02:08:02;;;;;;;;;;;;;;;;;;2114409;28;20377;-44
2022/08/07 02:09:02;;;;;;;;;;;;;;;;;;2114706;28;19924;-44
2022/08/07 02:10:04;;;;;;;;;;;;;;;;;;2114681;28;20395;-45
2022/08/07 02:11:05;;;;;;;;;;;;;;;;;;2113746;28;19924;-44
2022/08/07 02:12:16;;;;;;;;;;;;;;;;;;2107522;28;19955;-46
2022/08/07 02:13:17;;;;;;;;;;;;;;;;;;2107499;28;19924;-44
2022/08/07 02:14:18;;;;;;;;;;;;;;;;;;2107497;28;19935;-44
2022/08/07 02:15:36;;;;;;;;;;;;;;;;;;2107640;28;19931;-44
2022/08/07 02:16:37;;;;;;;;;;;;;;;;;;2107322;28;19924;-44
2022/08/07 02:17:38;;;;;;;;;;;;;;;;;;2107499;28;19924;-45
2022/08/07 02:18:40;;;;;;;;;;;;;;;;;;2107594;28;19973;-44
2022/08/07 02:19:47;;;;;;;;;;;;;;;;;;2107502;28;19933;-45
2022/08/07 02:21:06;;;;;;;;;;;;;;;;;;2107478;28;19955;-44
2022/08/07 02:22:07;;;;;;;;;;;;;;;;;;2107564;28;20015;-45
2022/08/07 02:23:08;;;;;;;;;;;;;;;;;;2107467;28;19946;-44
2022/08/07 02:24:12;;;;;;;;;;;;;;;;;;2107621;28;20027;-44
2022/08/07 02:25:13;;;;;;;;;;;;;;;;;;2107301;28;20020;-44
2022/08/07 02:26:17;;;;;;;;;;;;;;;;;;2107327;28;20424;-44
2022/08/07 02:27:34;;;;;;;;;;;;;;;;;;2107438;28;20277;-43
2022/08/07 02:28:35;;;;;;;;;;;;;;;;;;2107542;28;19928;-44
2022/08/07 02:29:36;;;;;;;;;;;;;;;;;;2107564;28;19977;-45
2022/08/07 02:30:44;;;;;;;;;;;;;;;;;;2107576;28;19946;-43
2022/08/07 02:31:44;;;;;;;;;;;;;;;;;;2107524;28;19928;-44
2022/08/07 02:32:46;;;;;;;;;;;;;;;;;;2107324;28;19924;-44
2022/08/07 02:34:07;;;;;;;;;;;;;;;;;;2107502;28;19953;-44
2022/08/07 02:35:14;;;;;;;;;;;;;;;;;;2113184;28;20415;-43
2022/08/07 02:36:15;;;;;;;;;;;;;;;;;;2115754;28;20038;-44
2022/08/07 02:37:30;;;;;;;;;;;;;;;;;;2115875;28;19931;-44
2022/08/07 02:38:30;;;;;;;;;;;;;;;;;;2116122;28;20010;-45
2022/08/07 02:39:32;;;;;;;;;;;;;;;;;;2115777;28;19977;-44
2022/08/07 02:40:44;;;;;;;;;;;;;;;;;;2115900;28;19924;-44
2022/08/07 02:41:47;;;;;;;;;;;;;;;;;;2115872;28;19976;-45
2022/08/07 02:42:54;;;;;;;;;;;;;;;;;;2116029;28;19928;-44
2022/08/07 02:43:55;;;;;;;;;;;;;;;;;;2115617;28;19924;-45
2022/08/07 02:44:56;;;;;;;;;;;;;;;;;;2115728;28;20392;-44
2022/08/07 02:45:58;;;;;;;;;;;;;;;;;;2115761;28;20427;-44
2022/08/07 02:47:01;;;;;;;;;;;;;;;;;;2115567;28;20381;-44
2022/08/07 02:48:03;;;;;;;;;;;;;;;;;;2115808;28;19923;-44
2022/08/07 02:49:04;;;;;;;;;;;;;;;;;;2116069;28;19970;-44
2022/08/07 02:50:05;;;;;;;;;;;;;;;;;;2115868;28;19924;-45
2022/08/07 02:51:06;;;;;;;;;;;;;;;;;;2115689;28;20376;-46
2022/08/07 02:52:07;;;;;;;;;;;;;;;;;;2115853;28;19935;-44
2022/08/07 02:53:08;;;;;;;;;;;;;;;;;;2115945;28;20773;-44
2022/08/07 02:54:11;;;;;;;;;;;;;;;;;;2115853;28;20010;-44
2022/08/07 02:55:13;;;;;;;;;;;;;;;;;;2115904;28;19928;-44
2022/08/07 02:56:28;;;;;;;;;;;;;;;;;;2115606;28;20322;-44
2022/08/07 02:57:29;;;;;;;;;;;;;;;;;;2115857;28;20015;-44
2022/08/07 02:58:31;;;;;;;;;;;;;;;;;;2115700;28;19931;-44
2022/08/07 02:59:33;;;;;;;;;;;;;;;;;;2115579;28;19977;-44
2022/08/07 03:00:34;;;;;;;;;;;;;;;;;;2115784;28;20064;-44
2022/08/07 03:01:35;;;;;;;;;;;;;;;;;;2115787;28;19923;-45
2022/08/07 03:02:40;;;;;;;;;;;;;;;;;;2115845;28;19959;-44
2022/08/07 03:03:55;;;;;;;;;;;;;;;;;;2115911;28;19931;-45
2022/08/07 03:04:56;;;;;;;;;;;;;;;;;;2115714;28;19924;-44
2022/08/07 03:05:57;;;;;;;;;;;;;;;;;;2115642;28;20019;-44
2022/08/07 03:06:58;;;;;;;;;;;;;;;;;;2115693;28;20300;-44
2022/08/07 03:07:59;;;;;;;;;;;;;;;;;;2115778;28;20015;-44
2022/08/07 03:09:07;;;;;;;;;;;;;;;;;;2115920;28;20372;-43
2022/08/07 03:10:11;;;;;;;;;;;;;;;;;;2115732;28;19969;-44
2022/08/07 03:11:12;;;;;;;;;;;;;;;;;;2113317;28;20369;-44
2022/08/07 03:12:13;;;;;;;;;;;;;;;;;;2107107;28;19924;-44
2022/08/07 03:13:23;;;;;;;;;;;;;;;;;;2107387;28;19924;-44
2022/08/07 03:14:24;;;;;;;;;;;;;;;;;;2107016;28;20365;-45
2022/08/07 03:15:25;;;;;;;;;;;;;;;;;;2107403;28;19956;-44
2022/08/07 03:16:30;;;;;;;;;;;;;;;;;;2107189;28;19977;-44
2022/08/07 03:17:31;;;;;;;;;;;;;;;;;;2107077;28;19928;-44
2022/08/07 03:18:32;;;;;;;;;;;;;;;;;;2107284;28;19924;-43
2022/08/07 03:19:35;;;;;;;;;;;;;;;;;;2107116;28;19972;-43
2022/08/07 03:20:37;;;;;;;;;;;;;;;;;;2107014;28;20079;-43
2022/08/07 03:21:38;;;;;;;;;;;;;;;;;;2107042;28;19928;-44
2022/08/07 03:22:39;;;;;;;;;;;;;;;;;;2106452;28;19947;-44
2022/08/07 03:23:40;;;;;;;;;;;;;;;;;;2106944;28;19924;-44
2022/08/07 03:25:01;;;;;;;;;;;;;;;;;;2107164;28;19924;-44
2022/08/07 03:26:02;;;;;;;;;;;;;;;;;;2106929;28;19931;-45
2022/08/07 03:27:02;;;;;;;;;;;;;;;;;;2107130;28;19953;-44
2022/08/07 03:28:03;;;;;;;;;;;;;;;;;;2107213;28;19995;-45
2022/08/07 03:29:10;;;;;;;;;;;;;;;;;;2107001;28;19974;-43
2022/08/07 03:30:11;;;;;;;;;;;;;;;;;;2107130;28;20019;-44
2022/08/07 03:31:19;;;;;;;;;;;;;;;;;;2110761;28;20014;-44
2022/08/07 03:32:20;;;;;;;;;;;;;;;;;;2115524;28;20018;-44
2022/08/07 03:33:20;;;;;;;;;;;;;;;;;;2115362;28;20002;-46
2022/08/07 03:34:21;;;;;;;;;;;;;;;;;;2115593;28;20006;-45
2022/08/07 03:35:23;;;;;;;;;;;;;;;;;;2115578;28;20328;-44
2022/08/07 03:36:26;;;;;;;;;;;;;;;;;;2115522;28;19924;-43
2022/08/07 03:37:27;;;;;;;;;;;;;;;;;;2115472;28;20387;-43
2022/08/07 03:38:28;;;;;;;;;;;;;;;;;;2115600;28;19966;-45
2022/08/07 03:39:30;;;;;;;;;;;;;;;;;;2115331;28;19923;-44
2022/08/07 03:40:46;;;;;;;;;;;;;;;;;;2115544;28;19951;-44
2022/08/07 03:41:48;;;;;;;;;;;;;;;;;;2115572;28;19924;-43
2022/08/07 03:42:51;;;;;;;;;;;;;;;;;;2115496;28;19924;-45
2022/08/07 03:43:53;;;;;;;;;;;;;;;;;;2115435;28;20328;-45
2022/08/07 03:44:57;;;;;;;;;;;;;;;;;;2115353;28;19924;-44
2022/08/07 03:45:58;;;;;;;;;;;;;;;;;;2115667;28;19924;-45
2022/08/07 03:46:59;;;;;;;;;;;;;;;;;;2115408;28;19931;-44
2022/08/07 03:48:14;;;;;;;;;;;;;;;;;;2115387;28;20010;-45
2022/08/07 03:49:15;;;;;;;;;;;;;;;;;;2115309;28;19953;-43
2022/08/07 03:50:18;;;;;;;;;;;;;;;;;;2115398;28;19924;-44
2022/08/07 03:51:23;;;;;;;;;;;;;;;;;;2115484;28;19959;-44
2022/08/07 03:52:24;;;;;;;;;;;;;;;;;;2115493;28;19931;-44
2022/08/07 03:53:26;;;;;;;;;;;;;;;;;;2115294;28;19924;-44
2022/08/07 03:54:47;;;;;;;;;;;;;;;;;;2115686;28;19983;-44
2022/08/07 03:55:54;;;;;;;;;;;;;;;;;;2115305;28;20296;-44
2022/08/07 03:57:04;;;;;;;;;;;;;;;;;;2115206;28;19923;-45
2022/08/07 03:58:07;;;;;;;;;;;;;;;;;;2115269;28;19926;-44
2022/08/07 03:59:28;;;;;;;;;;;;;;;;;;2115130;28;20309;-45
2022/08/07 04:00:29;;;;;;;;;;;;;;;;;;2115215;28;19924;-44
2022/08/07 04:01:31;;;;;;;;;;;;;;;;;;2115214;28;19927;-45
2022/08/07 04:02:32;;;;;;;;;;;;;;;;;;2115404;28;20173;-45
2022/08/07 04:03:33;;;;;;;;;;;;;;;;;;2115459;28;19923;-44
2022/08/07 04:04:50;;;;;;;;;;;;;;;;;;2115214;28;19924;-45
2022/08/07 04:05:51;;;;;;;;;;;;;;;;;;2115271;28;19962;-44
2022/08/07 04:06:52;;;;;;;;;;;;;;;;;;2115093;28;19969;-44
2022/08/07 04:07:53;;;;;;;;;;;;;;;;;;2115242;28;20016;-44
2022/08/07 04:08:53;;;;;;;;;;;;;;;;;;2115396;28;20288;-44
2022/08/07 04:09:54;;;;;;;;;;;;;;;;;;2115322;28;19934;-45
2022/08/07 04:10:55;;;;;;;;;;;;;;;;;;2115152;28;20010;-43
2022/08/07 04:12:16;;;;;;;;;;;;;;;;;;2106950;28;20383;-44
2022/08/07 04:13:26;;;;;;;;;;;;;;;;;;2106843;28;19931;-45
2022/08/07 04:14:28;;;;;;;;;;;;;;;;;;2107068;28;19924;-44
2022/08/07 04:15:37;;;;;;;;;;;;;;;;;;2106679;28;20327;-45
2022/08/07 04:16:38;;;;;;;;;;;;;;;;;;2106618;28;19927;-45
2022/08/07 04:17:39;;;;;;;;;;;;;;;;;;2106712;28;19932;-44
2022/08/07 04:19:00;;;;;;;;;;;;;;;;;;2106996;28;19924;-44
2022/08/07 04:20:02;;;;;;;;;;;;;;;;;;2106677;28;19974;-45
2022/08/07 04:21:03;;;;;;;;;;;;;;;;;;2106626;28;20014;-44
2022/08/07 04:22:03;;;;;;;;;;;;;;;;;;2107420;28;20032;-44
2022/08/07 04:23:09;;;;;;;;;;;;;;;;;;2106798;28;19958;-44
2022/08/07 04:24:11;;;;;;;;;;;;;;;;;;2106706;28;20024;-45
2022/08/07 04:25:12;;;;;;;;;;;;;;;;;;2106660;28;19924;-44
2022/08/07 04:26:13;;;;;;;;;;;;;;;;;;2107119;28;19924;-45
2022/08/07 04:27:14;;;;;;;;;;;;;;;;;;2108444;28;19962;-44
2022/08/07 04:28:15;;;;;;;;;;;;;;;;;;2114983;28;20304;-44
2022/08/07 04:29:16;;;;;;;;;;;;;;;;;;2106691;28;19924;-44
2022/08/07 04:30:17;;;;;;;;;;;;;;;;;;2106549;28;19993;-44
2022/08/07 04:31:36;;;;;;;;;;;;;;;;;;2106697;28;20365;-45
2022/08/07 04:32:39;;;;;;;;;;;;;;;;;;2106608;28;19924;-44
2022/08/07 04:33:40;;;;;;;;;;;;;;;;;;2106531;28;19928;-44
2022/08/07 04:34:41;;;;;;;;;;;;;;;;;;2105518;28;19924;-45
2022/08/07 04:35:42;;;;;;;;;;;;;;;;;;2106770;28;20262;-46
2022/08/07 04:36:43;;;;;;;;;;;;;;;;;;2106798;28;20007;-44
2022/08/07 04:37:44;;;;;;;;;;;;;;;;;;2106724;28;19959;-43
2022/08/07 04:39:04;;;;;;;;;;;;;;;;;;2106716;28;19931;-44
2022/08/07 04:40:04;;;;;;;;;;;;;;;;;;2106730;28;19982;-44
2022/08/07 04:41:05;;;;;;;;;;;;;;;;;;2106454;28;20014;-44
2022/08/07 04:42:06;;;;;;;;;;;;;;;;;;2106965;28;20369;-45
2022/08/07 04:43:07;;;;;;;;;;;;;;;;;;2106599;28;19966;-45
2022/08/07 04:44:08;;;;;;;;;;;;;;;;;;2106839;28;19924;-46
2022/08/07 04:45:13;;;;;;;;;;;;;;;;;;2106552;28;19955;-44
2022/08/07 04:46:13;;;;;;;;;;;;;;;;;;2106742;28;19978;-44
2022/08/07 04:47:26;;;;;;;;;;;;;;;;;;2106606;28;19924;-45
2022/08/07 04:48:47;;;;;;;;;;;;;;;;;;2106426;28;19931;-45
2022/08/07 04:49:51;;;;;;;;;;;;;;;;;;2106436;28;20012;-46
2022/08/07 04:50:58;;;;;;;;;;;;;;;;;;2106661;28;19931;-45
2022/08/07 04:51:59;;;;;;;;;;;;;;;;;;2106372;28;20239;-45
2022/08/07 04:53:00;;;;;;;;;;;;;;;;;;2106528;28;20275;-45
2022/08/07 04:54:01;;;;;;;;;;;;;;;;;;2106614;28;19924;-44
2022/08/07 04:55:06;;;;;;;;;;;;;;;;;;2106528;28;19928;-45
2022/08/07 04:56:16;;;;;;;;;;;;;;;;;;2106478;28;19925;-45
2022/08/07 04:57:37;;;;;;;;;;;;;;;;;;2106554;28;19928;-46
2022/08/07 04:58:58;;;;;;;;;;;;;;;;;;2106416;28;19932;-46
2022/08/07 05:00:19;;;;;;;;;;;;;;;;;;2106649;28;20007;-46
2022/08/07 05:01:30;;;;;;;;;;;;;;;;;;2106525;28;20247;-49
2022/08/07 05:02:31;;;;;;;;;;;;;;;;;;2106561;28;19971;-47
2022/08/07 05:03:32;;;;;;;;;;;;;;;;;;2106908;28;19946;-46
2022/08/07 05:04:53;;;;;;;;;;;;;;;;;;2106582;28;19924;-45
2022/08/07 05:05:54;;;;;;;;;;;;;;;;;;2106526;28;20010;-45
2022/08/07 05:06:57;;;;;;;;;;;;;;;;;;2106269;28;19928;-45
2022/08/07 05:07:58;;;;;;;;;;;;;;;;;;2106248;28;20399;-46
2022/08/07 05:08:59;;;;;;;;;;;;;;;;;;2106562;28;19970;-46
2022/08/07 05:10:02;;;;;;;;;;;;;;;;;;2106439;28;19982;-46
2022/08/07 05:11:05;;;;;;;;;;;;;;;;;;2107372;28;19932;-46
2022/08/07 05:12:05;;;;;;;;;;;;;;;;;;2114842;28;19930;-45
2022/08/07 05:13:07;;;;;;;;;;;;;;;;;;2114796;28;20022;-45
2022/08/07 05:14:28;;;;;;;;;;;;;;;;;;2114693;28;20397;-44
2022/08/07 05:15:49;;;;;;;;;;;;;;;;;;2114876;28;19927;-45
2022/08/07 05:16:50;;;;;;;;;;;;;;;;;;2114639;28;19924;-44
2022/08/07 05:17:53;;;;;;;;;;;;;;;;;;2114802;28;19934;-43
2022/08/07 05:18:55;;;;;;;;;;;;;;;;;;2114618;28;20354;-45
2022/08/07 05:19:56;;;;;;;;;;;;;;;;;;2114698;28;19978;-45
2022/08/07 05:20:57;;;;;;;;;;;;;;;;;;2114910;28;19924;-44
2022/08/07 05:21:58;;;;;;;;;;;;;;;;;;2114578;28;20377;-45
2022/08/07 05:23:01;;;;;;;;;;;;;;;;;;2114453;28;19923;-44
2022/08/07 05:24:02;;;;;;;;;;;;;;;;;;2114604;28;19974;-45
2022/08/07 05:25:03;;;;;;;;;;;;;;;;;;2114759;28;20357;-44
2022/08/07 05:26:09;;;;;;;;;;;;;;;;;;2114826;28;19928;-44
2022/08/07 05:27:17;;;;;;;;;;;;;;;;;;2114713;28;19924;-43
2022/08/07 05:28:38;;;;;;;;;;;;;;;;;;2114838;28;20292;-44
2022/08/07 05:29:40;;;;;;;;;;;;;;;;;;2114934;28;19923;-45
2022/08/07 05:30:52;;;;;;;;;;;;;;;;;;2114784;28;20014;-46
2022/08/07 05:31:52;;;;;;;;;;;;;;;;;;2114645;28;20291;-45
2022/08/07 05:32:53;;;;;;;;;;;;;;;;;;2114597;28;20006;-44
2022/08/07 05:33:54;;;;;;;;;;;;;;;;;;2114770;28;19924;-45
2022/08/07 05:35:04;;;;;;;;;;;;;;;;;;2114825;28;19924;-45
2022/08/07 05:36:05;;;;;;;;;;;;;;;;;;2114743;28;19977;-46
2022/08/07 05:37:07;;;;;;;;;;;;;;;;;;2114665;28;20079;-45
2022/08/07 05:38:08;;;;;;;;;;;;;;;;;;2114684;28;20471;-45
2022/08/07 05:39:10;;;;;;;;;;;;;;;;;;2114826;28;20402;-44
2022/08/07 05:40:31;;;;;;;;;;;;;;;;;;2114814;28;19924;-43
2022/08/07 05:41:32;;;;;;;;;;;;;;;;;;2114590;28;19951;-43
2022/08/07 05:42:53;;;;;;;;;;;;;;;;;;2115071;28;19997;-44
2022/08/07 05:43:57;;;;;;;;;;;;;;;;;;2114575;28;19930;-45
2022/08/07 05:45:09;;;;;;;;;;;;;;;;;;2114776;28;19928;-45
2022/08/07 05:46:26;;;;;;;;;;;;;;;;;;2114360;28;19930;-43
2022/08/07 05:47:27;;;;;;;;;;;;;;;;;;2114735;28;19959;-45
2022/08/07 05:48:48;;;;;;;;;;;;;;;;;;2115286;28;19923;-45
2022/08/07 05:49:59;;;;;;;;;;;;;;;;;;2114954;28;19992;-44
2022/08/07 05:51:00;;;;;;;;;;;;;;;;;;2114752;28;19924;-44
2022/08/07 05:52:01;;;;;;;;;;;;;;;;;;2114543;28;19923;-46
2022/08/07 05:53:02;;;;;;;;;;;;;;;;;;2114424;28;20007;-44
2022/08/07 05:54:03;;;;;;;;;;;;;;;;;;2114655;28;20527;-45
2022/08/07 05:55:13;;;;;;;;;;;;;;;;;;2114802;28;19998;-45
2022/08/07 05:56:13;;;;;;;;;;;;;;;;;;2114541;28;19924;-45
2022/08/07 05:57:14;;;;;;;;;;;;;;;;;;2114602;28;20404;-46
2022/08/07 05:58:15;;;;;;;;;;;;;;;;;;2114917;28;19984;-44
2022/08/07 05:59:16;;;;;;;;;;;;;;;;;;2114596;28;20300;-42
2022/08/07 06:00:17;;;;;;;;;;;;;;;;;;2114883;28;19930;-46
2022/08/07 06:01:18;;;;;;;;;;;;;;;;;;2114657;28;19962;-48
2022/08/07 06:02:19;;;;;;;;;;;;;;;;;;2114530;28;20349;-46
2022/08/07 06:03:22;;;;;;;;;;;;;;;;;;2114447;28;20377;-45
2022/08/07 06:04:23;;;;;;;;;;;;;;;;;;2114541;28;19931;-45
2022/08/07 06:05:27;;;;;;;;;;;;;;;;;;2114421;28;19924;-46
2022/08/07 06:06:29;;;;;;;;;;;;;;;;;;2114627;28;19928;-46
2022/08/07 06:07:32;;;;;;;;;;;;;;;;;;2114496;28;20384;-45
2022/08/07 06:08:53;;;;;;;;;;;;;;;;;;2114636;28;19985;-46
2022/08/07 06:09:54;;;;;;;;;;;;;;;;;;2114612;28;19924;-47
2022/08/07 06:11:06;;;;;;;;;;;;;;;;;;2112950;28;19973;-47
2022/08/07 06:12:07;;;;;;;;;;;;;;;;;;2106072;28;19934;-46
2022/08/07 06:13:08;;;;;;;;;;;;;;;;;;2106056;28;20387;-47
2022/08/07 06:14:13;;;;;;;;;;;;;;;;;;2106344;28;19977;-47
2022/08/07 06:15:21;;;;;;;;;;;;;;;;;;2106039;28;19978;-45
2022/08/07 06:16:22;;;;;;;;;;;;;;;;;;2106112;28;20444;-46
2022/08/07 06:17:23;;;;;;;;;;;;;;;;;;2106625;28;19924;-46
2022/08/07 06:18:32;;;;;;;;;;;;;;;;;;2106140;28;20288;-47
2022/08/07 06:19:33;;;;;;;;;;;;;;;;;;2106592;28;19924;-44
2022/08/07 06:20:52;;;;;;;;;;;;;;;;;;2114576;28;19924;-44
2022/08/07 06:22:13;;;;;;;;;;;;;;;;;;2114474;28;19924;-44
2022/08/07 06:23:24;;;;;;;;;;;;;;;;;;2114612;28;19924;-44
2022/08/07 06:24:45;;;;;;;;;;;;;;;;;;2114396;28;20143;-44
2022/08/07 06:25:57;;;;;;;;;;;;;;;;;;2114440;28;19963;-44
2022/08/07 06:26:58;;;;;;;;;;;;;;;;;;2114482;28;19977;-45
2022/08/07 06:27:59;;;;;;;;;;;;;;;;;;2114734;28;19934;-46
2022/08/07 06:29:03;;;;;;;;;;;;;;;;;;2114277;28;20443;-46
2022/08/07 06:30:04;;;;;;;;;;;;;;;;;;2114535;28;19931;-46
2022/08/07 06:31:05;;;;;;;;;;;;;;;;;;2114426;28;19928;-46
2022/08/07 06:32:06;;;;;;;;;;;;;;;;;;2114443;28;20019;-45
2022/08/07 06:33:07;;;;;;;;;;;;;;;;;;2114593;28;19934;-47
2022/08/07 06:34:11;;;;;;;;;;;;;;;;;;2114603;28;20313;-44
2022/08/07 06:35:12;;;;;;;;;;;;;;;;;;2114585;28;19923;-46
2022/08/07 06:36:18;;;;;;;;;;;;;;;;;;2114467;28;19959;-46
2022/08/07 06:37:35;;;;;;;;;;;;;;;;;;2115040;28;20343;-44
2022/08/07 06:38:44;;;;;;;;;;;;;;;;;;2114579;28;19924;-46
2022/08/07 06:39:59;;;;;;;;;;;;;;;;;;2114398;28;19931;-47
2022/08/07 06:41:18;;;;;;;;;;;;;;;;;;2114248;28;19927;-46
2022/08/07 06:42:32;;;;;;;;;;;;;;;;;;2114526;28;19931;-48
2022/08/07 06:43:36;;;;;;;;;;;;;;;;;;2114486;28;19934;-47
2022/08/07 06:44:40;;;;;;;;;;;;;;;;;;2114301;28;19924;-47
2022/08/07 06:45:40;;;;;;;;;;;;;;;;;;2114350;28;20023;-44
2022/08/07 06:46:41;;;;;;;;;;;;;;;;;;2114219;28;19977;-43
2022/08/07 06:47:42;;;;;;;;;;;;;;;;;;2114490;28;19928;-45
2022/08/07 06:48:59;;;;;;;;;;;;;;;;;;2114925;28;19930;-43
2022/08/07 06:50:00;;;;;;;;;;;;;;;;;;2114452;28;20380;-44
2022/08/07 06:51:01;;;;;;;;;;;;;;;;;;2114272;28;19931;-45
2022/08/07 06:52:08;;;;;;;;;;;;;;;;;;2114658;28;19924;-45
2022/08/07 06:53:10;;;;;;;;;;;;;;;;;;2114283;28;19924;-46
2022/08/07 06:54:31;;;;;;;;;;;;;;;;;;2114170;28;20288;-45
2022/08/07 06:55:52;;;;;;;;;;;;;;;;;;2114624;28;19923;-44
2022/08/07 06:57:01;;;;;;;;;;;;;;;;;;2114104;28;19930;-46
2022/08/07 06:58:02;;;;;;;;;;;;;;;;;;2114699;28;19966;-45
2022/08/07 06:59:02;;;;;;;;;;;;;;;;;;2116149;28;19930;-46
2022/08/07 07:00:23;;;;;;;;;;;;;;;;;;2115522;28;20381;-46
2022/08/07 07:01:24;;;;;;;;;;;;;;;;;;2115604;28;19923;-46
2022/08/07 07:02:25;;;;;;;;;;;;;;;;;;2115842;28;19924;-44
2022/08/07 07:03:46;;;;;;;;;;;;;;;;;;2115934;28;19927;-45
2022/08/07 07:04:50;;;;;;;;;;;;;;;;;;2115653;28;20297;-44
2022/08/07 07:05:55;;;;;;;;;;;;;;;;;;2115498;28;19927;-44
2022/08/07 07:07:06;;;;;;;;;;;;;;;;;;2115610;28;20497;-45
2022/08/07 07:08:19;;;;;;;;;;;;;;;;;;2115765;28;20119;-45
2022/08/07 07:09:25;;;;;;;;;;;;;;;;;;2116166;28;20453;-45
2022/08/07 07:10:26;;;;;;;;;;;;;;;;;;2115870;28;19981;-45
2022/08/07 07:11:28;;;;;;;;;;;;;;;;;;2110955;28;19959;-46
2022/08/07 07:12:48;;;;;;;;;;;;;;;;;;2107438;28;19931;-45
2022/08/07 07:13:53;;;;;;;;;;;;;;;;;;2107569;28;19924;-44
2022/08/07 07:14:59;;;;;;;;;;;;;;;;;;2107221;28;19928;-44
2022/08/07 07:16:01;;;;;;;;;;;;;;;;;;2108991;28;20460;-44
2022/08/07 07:17:02;;;;;;;;;;;;;;;;;;2115597;28;19924;-48
2022/08/07 07:18:03;;;;;;;;;;;;;;;;;;2115633;28;19970;-44
2022/08/07 07:19:05;;;;;;;;;;;;;;;;;;2115659;28;19927;-46
2022/08/07 07:20:26;;;;;;;;;;;;;;;;;;2115959;28;19934;-47
2022/08/07 07:21:27;;;;;;;;;;;;;;;;;;2115558;28;20360;-46
2022/08/07 07:22:41;;;;;;;;;;;;;;;;;;2115821;28;19927;-45
2022/08/07 07:24:02;;;;;;;;;;;;;;;;;;2116581;28;19924;-44
2022/08/07 07:25:07;;;;;;;;;;;;;;;;;;2115753;28;19955;-46
2022/08/07 07:26:28;;;;;;;;;;;;;;;;;;2115560;28;19924;-46